Time;durP1;ratioP1;P1;durP2;ratioP2;P2;SDS_P1;SDS_P2;PMS_P1;PMS_P2;Temp;Humidity;BMP_temperature;BMP_pressure;BME280_temperature;BME280_humidity;BME280_pressure;Samples;Min_cycle;Max_cycle;Signal;HPM_P1;HPM_P2
2023/01/11 00:17:56;;;;;;;5.82;2.70;;;4.90;99.90;;;;;;6232933;22;20088;-79
2023/01/11 00:24:05;;;;;;;7.32;2.95;;;5.90;99.90;;;;;;6244095;22;20043;-77
2023/01/11 00:26:54;;;;;;;7.40;2.58;;;4.80;99.90;;;;;;6208023;22;20013;31
2023/01/11 00:29:52;;;;;;;4.85;2.30;;;4.80;99.90;;;;;;6135383;23;20020;31
2023/01/11 00:32:19;;;;;;;4.78;1.90;;;4.80;99.90;;;;;;6144379;22;20046;-78
2023/01/11 00:54:15;;;;;;;7.45;3.13;;;4.60;99.90;;;;;;6179469;22;20395;-78
2023/01/11 00:56:44;;;;;;;4.63;2.47;;;4.60;99.90;;;;;;6218459;23;20008;-78
2023/01/11 00:59:13;;;;;;;5.97;2.40;;;4.60;99.90;;;;;;6069971;22;1558200;-77
2023/01/11 01:01:41;;;;;;;7.63;3.00;;;4.60;99.90;;;;;;6149497;22;20063;-79
2023/01/11 01:07:40;;;;;;;6.10;2.72;;;4.50;99.90;;;;;;6189815;23;20076;-77
2023/01/11 01:14:28;;;;;;;8.75;2.92;;;4.50;99.90;;;;;;6186796;23;20107;31
2023/01/11 01:17:06;;;;;;;7.22;2.80;;;4.50;99.90;;;;;;6147363;23;20036;-78
2023/01/11 02:29:25;;;;;;;6.68;2.22;;;4.10;99.90;;;;;;6198493;22;20048;31
2023/01/11 02:35:52;;;;;;;5.22;1.67;;;4.10;99.90;;;;;;6184439;23;20955;-78
2023/01/11 03:59:13;;;;;;;9.95;4.07;;;3.60;99.90;;;;;;6220011;22;20018;-78
2023/01/11 04:01:40;;;;;;;10.48;3.38;;;3.50;99.90;;;;;;6204449;23;20052;-78
2023/01/11 04:04:16;;;;;;;8.85;3.67;;;3.50;99.90;;;;;;6197753;22;20019;31
2023/01/11 04:17:24;;;;;;;12.23;4.45;;;3.50;99.90;;;;;;6135502;23;20041;-80
2023/01/11 04:19:54;;;;;;;12.02;3.13;;;3.50;99.90;;;;;;6133680;23;20017;-79
2023/01/11 04:22:21;;;;;;;10.40;3.38;;;3.50;99.90;;;;;;6140833;23;20061;-79
2023/01/11 05:16:52;;;;;;;12.65;5.07;;;3.30;99.90;;;;;;6144295;23;20253;-79
2023/01/11 05:19:19;;;;;;;18.55;6.93;;;3.20;99.90;;;;;;6144109;23;20510;-80
2023/01/11 05:21:46;;;;;;;18.73;8.68;;;3.30;99.90;;;;;;6142216;23;20022;-80
2023/01/11 05:24:15;;;;;;;16.10;7.63;;;3.20;99.90;;;;;;6139724;23;20014;-80
2023/01/11 05:26:44;;;;;;;22.75;9.98;;;3.20;99.90;;;;;;6139763;23;20018;-79
2023/01/11 05:29:15;;;;;;;22.95;7.57;;;3.30;99.90;;;;;;6120559;23;20349;-79
2023/01/11 05:31:42;;;;;;;14.70;5.88;;;3.20;99.90;;;;;;6141144;23;20357;-79
2023/01/11 05:34:12;;;;;;;17.85;6.35;;;3.20;99.90;;;;;;6136900;23;20021;-79
2023/01/11 05:36:41;;;;;;;11.32;5.30;;;3.20;99.90;;;;;;6155890;23;20014;-79
2023/01/11 05:39:09;;;;;;;12.57;5.55;;;3.20;99.90;;;;;;6171083;23;20073;-79
2023/01/11 05:41:38;;;;;;;14.25;5.63;;;3.10;99.90;;;;;;6171703;23;20025;-80
2023/01/11 05:46:55;;;;;;;14.23;5.82;;;3.20;99.90;;;;;;6170861;23;20325;-79
2023/01/11 05:49:22;;;;;;;21.27;7.10;;;3.20;99.90;;;;;;6173163;23;20017;-79
2023/01/11 05:51:49;;;;;;;22.58;8.48;;;3.10;99.90;;;;;;6170719;23;20013;-79
2023/01/11 05:54:16;;;;;;;20.13;7.88;;;3.10;99.90;;;;;;6171080;23;20032;-79
2023/01/11 05:56:44;;;;;;;15.57;7.47;;;3.10;99.90;;;;;;6147160;23;20024;-79
2023/01/11 05:59:11;;;;;;;17.75;6.80;;;3.10;99.90;;;;;;6172664;23;20109;-79
2023/01/11 06:01:39;;;;;;;14.45;5.40;;;3.00;99.90;;;;;;6171171;23;20081;-79
2023/01/11 06:04:07;;;;;;;15.65;6.10;;;3.00;99.90;;;;;;6172134;23;20048;-80
2023/01/11 06:06:35;;;;;;;13.77;6.45;;;3.00;99.90;;;;;;6176152;23;20069;-79
2023/01/11 06:09:03;;;;;;;15.50;6.15;;;3.00;99.90;;;;;;6147807;23;20029;-78
2023/01/11 06:11:30;;;;;;;14.38;6.30;;;3.00;99.90;;;;;;6173040;23;20052;-78
2023/01/11 06:13:57;;;;;;;17.13;7.25;;;3.00;99.90;;;;;;6172781;23;20077;-78
2023/01/11 06:16:24;;;;;;;19.10;6.95;;;3.10;99.90;;;;;;6192911;23;20033;-80
2023/01/11 06:18:53;;;;;;;19.77;7.70;;;3.00;99.90;;;;;;6144495;23;20075;-80
2023/01/11 06:21:20;;;;;;;16.80;6.90;;;3.00;99.90;;;;;;6169720;23;20697;-79
2023/01/11 06:23:52;;;;;;;17.40;7.47;;;3.00;99.90;;;;;;6169431;23;20013;-79
2023/01/11 06:26:21;;;;;;;17.80;6.07;;;3.00;99.90;;;;;;6172748;23;20024;-79
2023/01/11 06:28:49;;;;;;;19.70;7.05;;;3.00;99.90;;;;;;6171946;23;20107;-79
2023/01/11 06:31:17;;;;;;;18.70;7.47;;;3.00;99.90;;;;;;6175597;23;20076;-79
2023/01/11 06:33:45;;;;;;;21.40;7.82;;;3.00;99.90;;;;;;6173940;23;20073;-79
2023/01/11 06:36:13;;;;;;;18.33;6.72;;;3.00;99.90;;;;;;6172309;23;20021;-79
2023/01/11 06:38:41;;;;;;;21.02;8.05;;;3.00;99.90;;;;;;6152133;23;20025;-79
2023/01/11 06:41:10;;;;;;;22.83;7.93;;;3.00;99.90;;;;;;6176391;23;20095;-79
2023/01/11 06:43:40;;;;;;;18.95;6.93;;;3.00;99.90;;;;;;6149780;23;20044;-79
2023/01/11 06:46:25;;;;;;;20.15;7.57;;;3.00;99.90;;;;;;6110769;23;20022;-79
2023/01/11 06:48:55;;;;;;;18.20;7.07;;;3.00;99.90;;;;;;6087613;23;20022;-81
2023/01/11 06:51:22;;;;;;;17.98;7.43;;;3.00;99.90;;;;;;6110333;23;20032;-80
2023/01/11 06:53:49;;;;;;;22.90;9.93;;;2.90;99.90;;;;;;6110609;23;20022;-80
2023/01/11 06:56:20;;;;;;;25.58;10.32;;;3.00;99.90;;;;;;6111186;23;20022;-80
2023/01/11 06:58:47;;;;;;;23.35;10.10;;;2.90;99.90;;;;;;6109135;23;20027;-80
2023/01/11 07:01:15;;;;;;;23.50;9.82;;;2.90;99.90;;;;;;6108531;23;20052;-80
2023/01/11 07:03:44;;;;;;;29.95;12.40;;;2.90;99.90;;;;;;6100658;23;20509;-80
2023/01/11 07:06:12;;;;;;;27.13;11.73;;;2.90;99.90;;;;;;6098219;23;20791;-80
2023/01/11 07:08:41;;;;;;;27.77;12.25;;;2.80;99.90;;;;;;6074099;23;20093;-79
2023/01/11 07:11:08;;;;;;;39.05;11.65;;;2.70;99.90;;;;;;6095192;23;20386;-79
2023/01/11 07:13:35;;;;;;;26.00;10.30;;;2.80;99.90;;;;;;6094313;23;20401;-79
2023/01/11 07:16:02;;;;;;;30.65;11.50;;;2.90;99.90;;;;;;6092946;23;20516;-79
2023/01/11 07:18:30;;;;;;;31.65;12.88;;;2.80;99.90;;;;;;6093352;23;20026;-79
2023/01/11 07:20:57;;;;;;;30.20;12.73;;;2.80;99.90;;;;;;6095987;23;20106;-79
2023/01/11 07:23:25;;;;;;;36.33;15.57;;;2.80;99.90;;;;;;6105058;23;20026;-79
2023/01/11 07:25:52;;;;;;;34.13;15.00;;;2.80;99.90;;;;;;6129431;23;20089;-79
2023/01/11 07:28:19;;;;;;;26.08;12.63;;;2.80;99.90;;;;;;6122087;23;20025;-79
2023/01/11 07:30:47;;;;;;;26.08;10.20;;;2.80;99.90;;;;;;6096332;23;20026;-80
2023/01/11 07:33:25;;;;;;;27.00;10.60;;;2.80;99.90;;;;;;6101557;23;20025;-79
2023/01/11 07:35:53;;;;;;;23.98;10.18;;;2.80;99.90;;;;;;6150040;23;20467;-80
2023/01/11 07:38:20;;;;;;;23.83;10.20;;;2.90;99.90;;;;;;6128329;23;20018;-79
2023/01/11 07:40:47;;;;;;;26.95;10.52;;;2.80;99.90;;;;;;6128300;23;20017;-79
2023/01/11 07:43:17;;;;;;;22.33;10.77;;;2.90;99.90;;;;;;6102909;23;20116;-79
2023/01/11 07:45:48;;;;;;;21.67;9.63;;;2.90;99.90;;;;;;6103783;23;20041;-79
2023/01/11 07:48:25;;;;;;;25.48;11.60;;;2.90;99.90;;;;;;6132256;23;20018;-79
2023/01/11 07:50:53;;;;;;;28.17;11.52;;;2.90;99.90;;;;;;6108093;23;20021;-79
2023/01/11 07:53:24;;;;;;;28.13;11.07;;;3.00;99.90;;;;;;6150048;23;20049;-78
2023/01/11 07:55:53;;;;;;;26.20;10.07;;;3.00;99.90;;;;;;6127711;23;20097;-78
2023/01/11 07:58:21;;;;;;;23.75;10.65;;;3.10;99.90;;;;;;6130255;23;20513;-78
2023/01/11 08:00:48;;;;;;;24.48;9.85;;;3.10;99.90;;;;;;6132892;23;20014;-78
2023/01/11 08:03:15;;;;;;;56.75;22.98;;;3.20;99.90;;;;;;6136193;23;20077;-78
2023/01/11 08:05:42;;;;;;;38.97;18.50;;;3.20;99.90;;;;;;6137094;23;20041;-78
2023/01/11 08:08:10;;;;;;;39.05;16.60;;;3.20;99.90;;;;;;6137494;23;20021;-78
2023/01/11 08:10:37;;;;;;;46.03;20.50;;;3.20;99.90;;;;;;6141486;23;20082;-78
2023/01/11 08:15:59;;;;;;;44.25;20.67;;;3.30;99.90;;;;;;6146822;23;20037;-78
2023/01/11 08:18:27;;;;;;;32.95;14.98;;;3.30;99.90;;;;;;6122102;23;20018;-79
2023/01/11 08:20:54;;;;;;;31.25;14.85;;;3.40;99.90;;;;;;6120953;23;19998;-80
2023/01/11 08:23:22;;;;;;;38.90;15.27;;;3.40;99.90;;;;;;6170962;23;20025;-80
2023/01/11 08:25:54;;;;;;;43.38;19.85;;;3.40;99.90;;;;;;6142718;23;20018;-79
2023/01/11 08:28:21;;;;;;;49.10;19.80;;;3.50;99.90;;;;;;6142256;23;20022;-79
2023/01/11 08:30:48;;;;;;;73.88;27.88;;;3.50;99.90;;;;;;6140717;23;20028;-79
2023/01/11 08:33:16;;;;;;;59.50;24.73;;;3.50;99.90;;;;;;6139884;23;20024;-79
2023/01/11 08:35:43;;;;;;;46.78;19.42;;;3.50;99.90;;;;;;6114305;23;20018;-79
2023/01/11 08:38:10;;;;;;;115.25;56.15;;;3.60;99.90;;;;;;6113108;23;20014;-79
2023/01/11 08:40:38;;;;;;;47.53;23.55;;;3.60;99.90;;;;;;6135855;23;20245;-79
2023/01/11 08:43:05;;;;;;;59.15;28.08;;;3.70;99.90;;;;;;6135758;23;20437;-79
2023/01/11 08:45:33;;;;;;;43.40;21.58;;;3.70;99.90;;;;;;6133774;23;20048;-79
2023/01/11 08:48:00;;;;;;;52.17;26.25;;;3.70;99.90;;;;;;6129925;23;20026;-79
2023/01/11 08:50:27;;;;;;;44.60;20.15;;;3.80;99.90;;;;;;6130619;23;20454;-79
2023/01/11 08:52:54;;;;;;;41.65;21.60;;;3.80;99.90;;;;;;6139595;23;20024;-79
2023/01/11 08:55:21;;;;;;;41.33;20.55;;;3.80;99.90;;;;;;6112564;23;20018;-79
2023/01/11 08:57:49;;;;;;;26.83;12.02;;;3.90;99.90;;;;;;6157889;23;20113;-79
2023/01/11 09:00:16;;;;;;;24.35;11.20;;;3.90;99.90;;;;;;6139046;23;20026;-79
2023/01/11 09:02:44;;;;;;;29.58;12.35;;;3.90;99.90;;;;;;6116736;23;20048;-79
2023/01/11 09:05:12;;;;;;;26.35;11.32;;;4.00;99.90;;;;;;6115020;23;20025;-79
2023/01/11 09:07:39;;;;;;;22.42;10.15;;;4.00;99.90;;;;;;6110347;23;20049;-79
2023/01/11 09:10:07;;;;;;;27.23;13.10;;;4.10;99.90;;;;;;6114613;23;20405;-79
2023/01/11 09:12:34;;;;;;;26.80;11.43;;;4.10;99.90;;;;;;6138008;23;20022;-79
2023/01/11 09:15:04;;;;;;;34.13;17.05;;;4.10;99.90;;;;;;6114457;23;20021;-79
2023/01/11 09:17:32;;;;;;;22.15;10.10;;;4.20;99.90;;;;;;6161942;23;20460;-79
2023/01/11 09:19:59;;;;;;;22.30;9.38;;;4.20;99.90;;;;;;6141189;23;20033;-79
2023/01/11 09:22:27;;;;;;;21.58;9.55;;;4.20;99.90;;;;;;6168359;23;20029;-79
2023/01/11 09:24:57;;;;;;;19.77;7.85;;;4.20;99.90;;;;;;6167927;23;20013;-79
2023/01/11 09:27:25;;;;;;;21.20;9.55;;;4.30;99.90;;;;;;6167548;23;20069;-79
2023/01/11 09:29:52;;;;;;;20.73;8.93;;;4.30;99.90;;;;;;6165719;23;20022;-79
2023/01/11 09:32:20;;;;;;;20.77;10.02;;;4.30;99.90;;;;;;6140653;23;20072;-79
2023/01/11 09:34:48;;;;;;;24.80;12.05;;;4.40;99.90;;;;;;6137345;23;20449;-79
2023/01/11 09:37:16;;;;;;;30.40;14.82;;;4.40;99.90;;;;;;6162207;23;20069;-79
2023/01/11 09:39:43;;;;;;;31.65;13.80;;;4.40;99.90;;;;;;6164491;23;20025;-78
2023/01/11 09:42:16;;;;;;;22.58;11.30;;;4.40;99.90;;;;;;6166004;23;20028;-80
2023/01/11 09:44:59;;;;;;;22.95;10.93;;;4.50;99.90;;;;;;6139550;23;20060;-80
2023/01/11 09:47:39;;;;;;;23.67;10.27;;;4.50;99.90;;;;;;6167529;23;20025;-80
2023/01/11 09:50:24;;;;;;;23.20;9.48;;;4.50;99.90;;;;;;6166298;23;20013;-80
2023/01/11 09:52:58;;;;;;;21.88;9.82;;;4.50;99.90;;;;;;6166735;23;20045;-80
2023/01/11 09:55:33;;;;;;;21.83;9.50;;;4.50;99.90;;;;;;6167062;23;20017;-80
2023/01/11 09:58:32;;;;;;;20.42;10.45;;;4.60;99.90;;;;;;6164085;23;20022;-80
2023/01/11 10:01:09;;;;;;;30.27;10.90;;;4.70;99.90;;;;;;6147044;23;20021;-80
2023/01/11 10:04:02;;;;;;;23.63;11.90;;;4.70;99.90;;;;;;6147180;23;20025;-80
2023/01/11 10:06:51;;;;;;;27.55;12.20;;;4.70;99.90;;;;;;6146063;23;20009;-81
2023/01/11 10:09:37;;;;;;;26.55;13.02;;;4.80;99.90;;;;;;6174577;23;20021;-81
2023/01/11 10:12:37;;;;;;;35.72;17.42;;;4.90;99.90;;;;;;6149166;23;20025;-81
2023/01/11 10:15:44;;;;;;;22.27;9.50;;;5.10;99.90;;;;;;6139584;23;20018;-81
2023/01/11 10:19:00;;;;;;;24.88;9.95;;;5.30;99.90;;;;;;6165307;23;20045;-81
2023/01/11 10:21:54;;;;;;;20.15;10.52;;;5.50;99.90;;;;;;6170795;23;20029;-79
2023/01/11 18:08:22;;;;;;;84.78;31.70;;;3.80;99.90;;;;;;6260737;22;20074;-78
2023/01/11 18:10:55;;;;;;;106.35;41.97;;;3.90;99.90;;;;;;6237273;23;20027;-78
2023/01/11 18:13:35;;;;;;;110.75;43.47;;;3.40;99.90;;;;;;6236838;23;20064;-78
2023/01/11 18:16:34;;;;;;;91.78;40.65;;;3.80;99.90;;;;;;6247027;22;20011;-78
2023/01/11 18:25:44;;;;;;;67.63;27.80;;;3.70;99.90;;;;;;6273493;22;20019;-78
2023/01/11 18:29:26;;;;;;;62.20;26.35;;;3.60;99.90;;;;;;6228816;23;20121;-77
2023/01/11 18:32:43;;;;;;;62.28;26.92;;;3.90;99.90;;;;;;6223418;23;20028;-78
2023/01/11 18:35:27;;;;;;;66.70;29.45;;;3.50;99.90;;;;;;6132153;23;20037;-78
2023/01/11 18:38:03;;;;;;;70.40;28.65;;;3.70;99.90;;;;;;6120524;23;20067;-79
2023/01/11 18:40:41;;;;;;;65.38;29.77;;;3.50;99.90;;;;;;6061272;23;20074;-78
2023/01/11 18:43:39;;;;;;;68.90;28.88;;;3.50;99.90;;;;;;6008696;23;20040;-78
2023/01/11 18:46:08;;;;;;;74.18;29.27;;;3.50;99.90;;;;;;6004525;23;20020;-77
2023/01/11 18:48:39;;;;;;;71.65;30.33;;;3.50;99.90;;;;;;6004248;23;20047;-78
2023/01/11 18:51:18;;;;;;;73.20;32.70;;;3.40;99.90;;;;;;6027816;23;20026;-77
2023/01/11 18:57:12;;;;;;;80.80;33.88;;;3.40;99.90;;;;;;6175535;22;20098;-78
2023/01/11 18:59:45;;;;;;;83.22;35.00;;;3.40;99.90;;;;;;6235220;23;20066;-78
2023/01/11 19:02:29;;;;;;;93.72;39.75;;;3.30;99.90;;;;;;6235845;23;20024;-78
2023/01/11 19:05:08;;;;;;;91.82;37.75;;;3.30;99.90;;;;;;6236077;23;20071;-78
2023/01/11 19:07:45;;;;;;;96.82;36.78;;;2.90;99.90;;;;;;6263195;23;20043;-79
2023/01/11 19:11:02;;;;;;;100.53;38.53;;;3.30;99.90;;;;;;6130077;23;20025;-79
2023/01/11 19:13:38;;;;;;;79.28;34.53;;;3.20;99.90;;;;;;6113089;23;20050;-80
2023/01/11 19:16:17;;;;;;;84.05;36.95;;;3.30;99.90;;;;;;6077301;23;20022;-80
2023/01/11 19:18:53;;;;;;;94.00;37.80;;;3.30;99.90;;;;;;6058588;23;20015;-79
2023/01/11 19:22:00;;;;;;;93.22;37.63;;;2.80;99.90;;;;;;6023093;23;20090;-79
2023/01/11 19:24:44;;;;;;;88.05;38.58;;;3.10;99.90;;;;;;5979726;23;20020;-79
2023/01/11 19:27:19;;;;;;;105.95;43.60;;;3.10;99.90;;;;;;5969231;24;20034;-79
2023/01/11 19:29:48;;;;;;;106.75;42.72;;;3.20;99.90;;;;;;5948306;24;20069;-79
2023/01/11 19:32:24;;;;;;;111.35;45.88;;;3.10;99.90;;;;;;5968975;24;20028;-78
2023/01/11 19:34:56;;;;;;;126.60;49.55;;;3.00;99.90;;;;;;5969303;24;20028;-79
2023/01/11 19:37:33;;;;;;;112.47;48.17;;;3.10;99.90;;;;;;5945157;24;20339;-78
2023/01/11 19:40:04;;;;;;;122.50;50.45;;;3.00;99.90;;;;;;5941031;24;20028;-78
2023/01/11 19:42:37;;;;;;;139.75;51.05;;;2.90;99.90;;;;;;5962772;23;20024;-79
2023/01/11 19:45:06;;;;;;;123.85;47.10;;;2.60;99.90;;;;;;5997060;23;20341;-79
2023/01/11 19:47:34;;;;;;;116.43;47.00;;;2.90;99.90;;;;;;5991138;23;20033;-79
2023/01/11 19:50:07;;;;;;;109.60;46.25;;;2.90;99.90;;;;;;6085741;23;20572;-79
2023/01/11 19:52:35;;;;;;;124.05;46.10;;;2.80;99.90;;;;;;6110825;23;20091;-79
2023/01/11 19:55:04;;;;;;;130.63;49.75;;;2.70;99.90;;;;;;6165794;23;20052;-79
2023/01/11 19:57:35;;;;;;;118.60;46.60;;;2.80;99.90;;;;;;6135062;23;20029;-79
2023/01/11 20:00:09;;;;;;;112.10;45.35;;;2.80;99.90;;;;;;6139737;23;20020;-79
2023/01/11 20:02:41;;;;;;;119.10;45.50;;;2.70;99.90;;;;;;6161125;23;20460;-79
2023/01/11 20:05:09;;;;;;;124.43;49.70;;;2.70;99.90;;;;;;6167810;23;20573;-79
2023/01/11 20:07:43;;;;;;;128.00;47.85;;;2.50;99.90;;;;;;6196888;23;20020;-78
2023/01/11 20:10:12;;;;;;;123.53;48.90;;;2.90;99.90;;;;;;6217792;23;20040;-78
2023/01/11 20:12:40;;;;;;;119.75;45.80;;;2.90;99.90;;;;;;6192294;23;20016;-78
2023/01/11 20:15:10;;;;;;;137.88;47.47;;;2.80;99.90;;;;;;6193544;23;20039;-79
2023/01/11 20:17:39;;;;;;;124.95;49.28;;;2.70;99.90;;;;;;6159953;23;20028;-79
2023/01/11 20:20:08;;;;;;;130.20;49.72;;;2.40;99.90;;;;;;6124653;23;20101;-78
2023/01/11 20:22:39;;;;;;;132.82;53.58;;;2.60;99.90;;;;;;6123517;23;20046;-79
2023/01/11 20:25:07;;;;;;;138.02;52.75;;;2.20;99.90;;;;;;6128590;23;20021;-79
2023/01/11 20:27:36;;;;;;;136.63;52.33;;;2.60;99.90;;;;;;6103610;23;20112;-79
2023/01/11 20:30:08;;;;;;;140.50;55.47;;;2.80;99.90;;;;;;6125516;23;20021;-79
2023/01/11 20:32:42;;;;;;;140.65;53.53;;;2.40;99.90;;;;;;6129196;23;20025;-78
2023/01/11 20:35:14;;;;;;;136.80;57.63;;;2.50;99.90;;;;;;6130304;23;20108;-78
2023/01/11 20:37:42;;;;;;;170.45;67.85;;;2.50;99.90;;;;;;6124684;23;20024;-78
2023/01/11 20:40:10;;;;;;;162.57;61.35;;;2.20;99.90;;;;;;6103457;23;20046;-78
2023/01/11 20:42:41;;;;;;;176.80;63.63;;;2.40;99.90;;;;;;6126189;23;20025;-78
2023/01/11 20:45:11;;;;;;;193.35;68.80;;;2.50;99.90;;;;;;6102704;23;20029;-78
2023/01/11 20:47:43;;;;;;;191.60;66.65;;;2.40;99.90;;;;;;6092074;23;20050;-78
2023/01/11 20:50:14;;;;;;;161.60;59.85;;;2.40;99.90;;;;;;6085038;23;20030;-79
2023/01/11 20:52:42;;;;;;;141.38;53.13;;;2.40;99.90;;;;;;6165076;23;20100;-79
2023/01/11 20:55:10;;;;;;;122.10;48.45;;;2.50;99.90;;;;;;6162891;23;20500;-79
2023/01/11 20:57:39;;;;;;;132.65;53.08;;;2.50;99.90;;;;;;6161327;23;20096;-78
2023/01/11 21:00:09;;;;;;;126.85;51.88;;;2.30;99.90;;;;;;6138272;23;20080;-78
2023/01/11 21:02:36;;;;;;;126.00;49.85;;;2.30;99.90;;;;;;6160787;23;20031;-78
2023/01/11 21:05:04;;;;;;;125.15;48.88;;;2.60;99.90;;;;;;6160827;23;20345;-79
2023/01/11 21:07:32;;;;;;;127.95;49.78;;;2.40;99.90;;;;;;6185367;23;20100;-79
2023/01/11 21:10:00;;;;;;;123.90;48.00;;;2.10;99.90;;;;;;6159861;23;20028;-79
2023/01/11 21:12:27;;;;;;;138.70;52.42;;;2.40;99.90;;;;;;6161736;23;20076;-79
2023/01/11 21:14:55;;;;;;;142.68;55.42;;;2.30;99.90;;;;;;6160968;23;20025;-79
2023/01/11 21:17:22;;;;;;;149.80;56.60;;;1.80;99.90;;;;;;6163171;23;20013;-79
2023/01/11 21:19:50;;;;;;;153.30;59.45;;;2.30;99.90;;;;;;6162018;23;20080;-79
2023/01/11 21:22:18;;;;;;;153.48;61.25;;;2.40;99.90;;;;;;6162660;23;20044;-79
2023/01/11 21:24:47;;;;;;;154.35;58.00;;;2.30;99.90;;;;;;6172867;23;20020;-79
2023/01/11 21:27:14;;;;;;;147.57;61.22;;;2.50;99.90;;;;;;6194940;23;20012;-79
2023/01/11 21:29:45;;;;;;;163.43;60.33;;;2.50;99.90;;;;;;6169839;23;20043;-79
2023/01/11 21:32:13;;;;;;;206.25;74.10;;;2.50;99.90;;;;;;6198285;23;20027;-79
2023/01/11 21:34:40;;;;;;;171.07;68.28;;;2.40;99.90;;;;;;6176649;23;20460;-79
2023/01/11 21:37:08;;;;;;;163.10;66.55;;;2.40;99.90;;;;;;6174658;23;20013;-79
2023/01/11 21:39:35;;;;;;;160.20;58.47;;;2.50;99.90;;;;;;6172611;23;20012;-79
2023/01/11 21:42:03;;;;;;;136.60;56.15;;;2.50;99.90;;;;;;6201423;23;20017;-79
2023/01/11 21:44:35;;;;;;;130.40;53.55;;;2.50;99.90;;;;;;6176840;23;20115;-79
2023/01/11 21:47:05;;;;;;;121.72;50.55;;;2.40;99.90;;;;;;6173246;23;20060;-79
2023/01/11 21:49:33;;;;;;;111.45;46.65;;;2.50;99.90;;;;;;6175593;23;20024;-79
2023/01/11 21:52:06;;;;;;;110.55;43.20;;;2.50;99.90;;;;;;6203592;23;20013;-79
2023/01/11 21:54:48;;;;;;;87.78;38.15;;;2.60;99.90;;;;;;6153058;23;20016;-79
2023/01/11 21:57:17;;;;;;;82.70;34.30;;;2.30;99.90;;;;;;6200384;23;20021;-78
2023/01/11 21:59:58;;;;;;;72.68;30.27;;;2.60;99.90;;;;;;6196058;23;20048;-79
2023/01/11 22:02:27;;;;;;;68.50;28.27;;;2.50;99.90;;;;;;6197515;23;20048;-79
2023/01/11 22:05:54;;;;;;;57.38;26.45;;;2.60;99.90;;;;;;6066292;23;20022;-79
2023/01/11 22:08:26;;;;;;;64.30;26.92;;;2.50;99.90;;;;;;6047738;23;20027;-78
2023/01/11 22:11:22;;;;;;;61.40;27.58;;;2.70;99.90;;;;;;6038858;23;20413;-79
2023/01/11 22:13:54;;;;;;;66.75;27.83;;;2.30;99.90;;;;;;6021169;23;20047;-79
2023/01/11 22:16:22;;;;;;;65.63;24.60;;;1.60;99.90;;;;;;5998900;23;20476;-79
2023/01/11 22:18:55;;;;;;;62.67;25.63;;;2.40;99.90;;;;;;6045047;23;20459;-79
2023/01/11 22:21:26;;;;;;;60.20;25.15;;;2.50;99.90;;;;;;6019785;23;20091;-80
2023/01/11 22:24:28;;;;;;;65.00;25.35;;;3.00;99.90;;;;;;6019288;23;20038;-78
2023/01/11 22:26:56;;;;;;;54.90;24.77;;;2.60;99.90;;;;;;6018867;23;20019;-78
2023/01/11 22:29:26;;;;;;;64.95;26.02;;;2.60;99.90;;;;;;6057638;23;20018;-78
2023/01/11 22:32:03;;;;;;;60.20;26.05;;;2.50;99.90;;;;;;6083888;23;20026;-78
2023/01/11 22:34:33;;;;;;;69.22;29.38;;;2.30;99.90;;;;;;6128947;23;20182;-80
2023/01/11 22:37:00;;;;;;;72.75;31.15;;;2.50;99.90;;;;;;6103242;23;20018;-79
2023/01/11 22:39:28;;;;;;;82.13;36.13;;;2.50;99.90;;;;;;6103102;23;20029;-79
2023/01/11 22:41:58;;;;;;;93.28;41.35;;;2.50;99.90;;;;;;6102266;23;20022;-79
2023/01/11 22:44:26;;;;;;;98.00;41.42;;;2.40;99.90;;;;;;6104946;23;20021;-79
2023/01/11 22:46:54;;;;;;;108.57;44.90;;;2.40;99.90;;;;;;6164540;23;20029;-79
2023/01/11 22:49:21;;;;;;;164.52;61.60;;;2.50;99.90;;;;;;6168266;23;20040;-79
2023/01/11 22:51:49;;;;;;;172.25;68.63;;;2.90;99.90;;;;;;6159265;23;20021;-78
2023/01/11 22:54:17;;;;;;;148.05;62.92;;;2.40;99.90;;;;;;6135596;23;20037;-78
2023/01/11 22:56:44;;;;;;;138.65;60.58;;;2.20;99.90;;;;;;6133464;23;20085;-79
2023/01/11 22:59:12;;;;;;;151.25;63.58;;;2.20;99.90;;;;;;6158853;23;20021;-79
2023/01/11 23:01:40;;;;;;;171.75;69.85;;;2.20;99.90;;;;;;6135042;23;20064;-78
2023/01/11 23:04:12;;;;;;;155.65;59.38;;;2.20;99.90;;;;;;6134882;23;20083;-78
2023/01/11 23:06:41;;;;;;;156.60;62.67;;;1.70;99.90;;;;;;6110664;23;20112;-78
2023/01/11 23:09:13;;;;;;;146.73;62.88;;;1.90;99.90;;;;;;6111066;23;20481;-78
2023/01/11 23:14:35;;;;;;;151.13;58.53;;;2.20;99.90;;;;;;6135301;23;20022;-78
2023/01/11 23:17:07;;;;;;;158.35;63.38;;;2.20;99.90;;;;;;6136088;23;20021;-79
2023/01/11 23:19:37;;;;;;;150.98;61.40;;;2.00;99.90;;;;;;6110769;23;20092;-78
2023/01/11 23:22:13;;;;;;;160.38;63.38;;;2.10;99.90;;;;;;6164934;23;20116;-78
2023/01/11 23:24:41;;;;;;;165.95;65.75;;;2.00;99.90;;;;;;6166256;23;20044;-79
2023/01/11 23:27:09;;;;;;;185.50;70.18;;;0.80;99.90;;;;;;6131858;23;20175;-78
2023/01/11 23:29:37;;;;;;;187.63;75.03;;;2.00;99.90;;;;;;6156169;23;20735;-78
2023/01/11 23:32:04;;;;;;;181.45;70.88;;;2.20;99.90;;;;;;6104689;23;20028;-77
2023/01/11 23:34:32;;;;;;;168.35;67.80;;;1.10;99.90;;;;;;6128146;23;20112;-77
2023/01/11 23:37:00;;;;;;;180.95;69.95;;;1.90;99.90;;;;;;6104964;23;20024;-78
2023/01/11 23:39:27;;;;;;;189.02;69.82;;;1.90;99.90;;;;;;6131680;23;20026;-77
2023/01/11 23:44:41;;;;;;;185.57;66.75;;;1.50;99.90;;;;;;6153795;23;20080;-78
2023/01/11 23:47:20;;;;;;;164.10;67.50;;;1.90;99.90;;;;;;6153376;23;20476;-79
2023/01/11 23:49:49;;;;;;;169.82;64.65;;;1.80;99.90;;;;;;6151850;23;20524;-79
2023/01/11 23:52:18;;;;;;;176.13;68.63;;;1.90;99.90;;;;;;6103233;23;20018;-77
2023/01/11 23:54:46;;;;;;;180.70;70.90;;;2.00;99.90;;;;;;6130360;23;20029;-78
2023/01/11 23:57:14;;;;;;;177.13;68.25;;;1.60;99.90;;;;;;6108883;23;20017;-77
2023/01/11 23:59:42;;;;;;;162.13;63.22;;;3.20;99.90;;;;;;6160217;23;20028;-78
